Time;durP1;ratioP1;P1;durP2;ratioP2;P2;SDS_P1;SDS_P2;PMS_P1;PMS_P2;Temp;Humidity;BMP_temperature;BMP_pressure;BME280_temperature;BME280_humidity;BME280_pressure;Samples;Min_cycle;Max_cycle;Signal;HPM_P1;HPM_P2
2023/09/12 00:02:12;;;;;;;0.50;0.20;;;;;;;19.38;98.24;99824.91;5007772;28;20888;-50
2023/09/12 00:04:38;;;;;;;0.50;0.20;;;;;;;19.15;99.33;99815.75;5007497;28;20452;-49
2023/09/12 00:07:05;;;;;;;0.50;0.20;;;;;;;18.90;100.00;99813.94;5000891;28;20492;-49
2023/09/12 00:09:31;;;;;;;1.33;1.23;;;;;;;18.98;100.00;99806.19;5001637;28;20851;-49
2023/09/12 00:11:57;;;;;;;0.50;0.20;;;;;;;18.80;100.00;99808.38;5011213;28;20452;-49
2023/09/12 00:14:24;;;;;;;0.50;0.20;;;;;;;18.99;100.00;99802.53;5013638;28;20461;-51
2023/09/12 00:16:52;;;;;;;0.50;0.30;;;;;;;19.34;100.00;99801.84;5000751;28;20514;-50
2023/09/12 00:19:19;;;;;;;0.50;0.30;;;;;;;19.52;99.70;99806.75;5001031;28;20473;-49
2023/09/12 00:21:45;;;;;;;0.50;0.20;;;;;;;19.52;99.06;99805.88;5011426;28;20452;-50
2023/09/12 00:24:12;;;;;;;0.50;0.20;;;;;;;19.62;98.61;99801.56;5000811;28;20500;-49
2023/09/12 00:26:38;;;;;;;0.50;0.20;;;;;;;19.64;98.62;99791.53;5006854;28;20485;-50
2023/09/12 00:29:04;;;;;;;0.50;0.20;;;;;;;19.65;99.45;99793.25;5007189;28;20919;-49
2023/09/12 00:31:31;;;;;;;0.50;0.20;;;;;;;19.60;99.52;99786.47;5000770;28;20452;-50
2023/09/12 00:33:58;;;;;;;0.50;0.20;;;;;;;19.64;99.46;99788.84;5000784;28;20512;-49
2023/09/12 00:36:24;;;;;;;0.50;0.20;;;;;;;19.66;99.22;99799.50;5007020;28;20500;-49
2023/09/12 00:38:51;;;;;;;0.50;0.20;;;;;;;19.71;98.97;99806.28;5007100;28;20479;-49
2023/09/12 00:41:17;;;;;;;0.50;0.20;;;;;;;19.78;98.66;99798.59;5006575;28;20453;-53
2023/09/12 00:43:44;;;;;;;0.50;0.20;;;;;;;19.68;98.56;99794.84;5006293;28;20571;-50
2023/09/12 00:46:11;;;;;;;0.50;0.20;;;;;;;19.75;98.39;99796.13;5001056;28;20453;-50
2023/09/12 00:48:38;;;;;;;0.50;0.30;;;;;;;19.97;97.42;99793.53;5000138;28;20951;-50
2023/09/12 00:51:05;;;;;;;0.50;0.30;;;;;;;19.81;98.38;99791.13;5006510;28;20458;-49
2023/09/12 00:53:32;;;;;;;2.20;1.40;;;;;;;19.71;98.87;99790.09;4998996;28;20456;-50
2023/09/12 00:55:59;;;;;;;0.50;0.20;;;;;;;19.60;99.29;99792.75;5020236;28;20500;-50
2023/09/12 00:58:27;;;;;;;0.50;0.20;;;;;;;19.19;100.00;99788.50;5000385;28;20493;-50
2023/09/12 01:00:54;;;;;;;0.50;0.20;;;;;;;19.13;100.00;99775.47;5006833;28;20460;-50
2023/09/12 01:03:20;;;;;;;0.50;0.20;;;;;;;19.15;100.00;99778.03;5013382;28;20456;-50
2023/09/12 01:05:47;;;;;;;1.03;1.03;;;;;;;19.22;100.00;99784.72;5007239;28;20465;-50
2023/09/12 01:08:14;;;;;;;5.47;0.80;;;;;;;19.31;100.00;99785.88;5006170;28;20523;-48
2023/09/12 01:10:46;;;;;;;0.50;0.20;;;;;;;19.27;100.00;99776.28;5003675;28;20477;-48
2023/09/12 01:13:16;;;;;;;0.50;0.20;;;;;;;19.14;100.00;99779.88;5011114;28;20483;-48
2023/09/12 01:15:43;;;;;;;0.50;0.30;;;;;;;18.94;100.00;99770.53;5007634;28;20731;-48
2023/09/12 01:18:11;;;;;;;0.50;0.20;;;;;;;19.06;100.00;99782.28;5011600;28;20981;-51
2023/09/12 01:20:41;;;;;;;0.50;0.27;;;;;;;19.20;100.00;99787.53;5012804;28;20472;-51
2023/09/12 01:23:28;;;;;;;0.50;0.20;;;;;;;19.29;100.00;99785.97;4999929;28;20455;-50
2023/09/12 01:26:26;;;;;;;0.50;0.20;;;;;;;19.30;100.00;99784.16;5001027;28;20480;-47
2023/09/12 01:28:55;;;;;;;0.50;0.20;;;;;;;19.13;100.00;99788.94;5003133;28;20473;-48
2023/09/12 01:31:23;;;;;;;0.50;0.20;;;;;;;19.04;100.00;99789.59;4999407;28;20457;-50
2023/09/12 01:33:55;;;;;;;0.50;0.20;;;;;;;18.96;100.00;99780.34;5002193;28;20572;-50
2023/09/12 01:36:21;;;;;;;0.50;0.20;;;;;;;18.98;100.00;99775.69;5006046;28;20533;-48
2023/09/12 01:38:48;;;;;;;0.50;0.33;;;;;;;19.01;100.00;99775.47;5004559;28;20476;-50
2023/09/12 01:41:14;;;;;;;0.50;0.20;;;;;;;19.13;100.00;99767.38;4999207;28;21018;-47
2023/09/12 01:43:43;;;;;;;0.47;0.20;;;;;;;19.08;100.00;99769.56;5012257;28;20463;-47
2023/09/12 01:46:09;;;;;;;0.50;0.20;;;;;;;18.98;100.00;99760.41;4999382;28;20552;-47
2023/09/12 01:48:37;;;;;;;0.50;0.20;;;;;;;18.85;100.00;99762.25;5011680;28;20492;-48
2023/09/12 01:51:05;;;;;;;0.50;0.20;;;;;;;19.17;100.00;99762.63;5006892;28;20457;-49
2023/09/12 01:53:34;;;;;;;0.50;0.20;;;;;;;19.41;100.00;99765.38;5005196;28;20544;-48
2023/09/12 01:56:01;;;;;;;0.50;0.20;;;;;;;19.44;100.00;99757.03;5019793;28;20479;-49
2023/09/12 01:58:28;;;;;;;0.50;0.20;;;;;;;19.42;100.00;99750.91;4999354;28;20504;-49
2023/09/12 02:00:55;;;;;;;0.50;0.20;;;;;;;19.52;100.00;99742.03;5006562;28;20540;-48
2023/09/12 02:03:21;;;;;;;0.50;0.20;;;;;;;19.56;100.00;99749.91;5012283;28;20448;-51
2023/09/12 02:05:48;;;;;;;0.50;0.20;;;;;;;19.60;100.00;99752.28;5003483;28;20538;-50
2023/09/12 02:08:14;;;;;;;0.50;0.20;;;;;;;19.68;100.00;99757.09;5009330;28;20491;-48
2023/09/12 02:10:41;;;;;;;0.50;0.20;;;;;;;19.77;100.00;99751.03;5003069;28;20500;-50
2023/09/12 02:13:07;;;;;;;0.50;0.20;;;;;;;19.72;100.00;99745.97;5003044;28;20460;-49
2023/09/12 02:15:33;;;;;;;0.50;0.20;;;;;;;19.50;100.00;99741.28;5002807;28;20452;-51
2023/09/12 02:18:00;;;;;;;0.40;0.20;;;;;;;19.56;100.00;99755.31;5008928;28;20452;-50
2023/09/12 02:20:27;;;;;;;0.50;0.20;;;;;;;19.71;100.00;99762.25;5009252;28;20564;-50
2023/09/12 02:22:53;;;;;;;0.50;0.20;;;;;;;19.81;100.00;99766.00;5009814;28;20519;-50
2023/09/12 02:25:20;;;;;;;0.50;0.20;;;;;;;19.73;99.68;99766.56;5001539;28;20511;-51
2023/09/12 02:27:46;;;;;;;0.50;0.50;;;;;;;19.85;99.15;99777.41;5009551;28;20523;-50
2023/09/12 02:30:12;;;;;;;0.47;0.20;;;;;;;19.81;99.11;99779.47;5003326;28;20472;-48
2023/09/12 02:32:42;;;;;;;0.40;0.20;;;;;;;19.75;99.73;99778.13;5008288;28;20524;-48
2023/09/12 02:35:08;;;;;;;0.40;0.20;;;;;;;19.83;99.74;99772.13;5008843;28;20453;-51
2023/09/12 02:37:35;;;;;;;0.50;0.30;;;;;;;19.63;100.00;99780.88;5009865;28;20479;-48
2023/09/12 02:40:03;;;;;;;0.50;0.37;;;;;;;19.46;100.00;99788.34;5007247;28;20581;-51
2023/09/12 02:42:30;;;;;;;0.50;0.20;;;;;;;19.49;100.00;99780.00;5009452;28;20449;-48
2023/09/12 02:44:56;;;;;;;0.50;0.20;;;;;;;19.00;100.00;99774.63;5003914;28;20452;-48
2023/09/12 02:47:23;;;;;;;0.50;0.20;;;;;;;18.92;100.00;99771.63;5005983;28;21016;-51
2023/09/12 02:49:49;;;;;;;0.50;0.20;;;;;;;19.06;100.00;99768.81;5008448;28;20481;-51
2023/09/12 02:52:16;;;;;;;0.50;0.20;;;;;;;19.01;100.00;99768.25;5008592;28;21081;-48
2023/09/12 02:54:42;;;;;;;0.40;0.20;;;;;;;18.97;100.00;99764.06;5012486;28;20526;-50
2023/09/12 02:57:09;;;;;;;0.40;0.20;;;;;;;18.98;100.00;99765.78;5009096;28;20442;-50
2023/09/12 02:59:36;;;;;;;0.50;0.20;;;;;;;18.83;100.00;99759.66;5004923;28;20522;-51
2023/09/12 03:02:03;;;;;;;0.43;0.20;;;;;;;18.90;100.00;99760.94;5009409;28;20461;-48
2023/09/12 03:04:30;;;;;;;0.50;0.20;;;;;;;18.97;100.00;99757.81;5006195;28;20449;-48
2023/09/12 03:06:57;;;;;;;0.40;0.20;;;;;;;19.10;100.00;99756.81;5008532;28;20492;-48
2023/09/12 03:09:24;;;;;;;0.40;0.20;;;;;;;19.01;100.00;99753.94;5005072;28;20479;-48
2023/09/12 03:11:50;;;;;;;0.50;0.20;;;;;;;18.79;100.00;99751.94;5001919;28;20457;-48
2023/09/12 03:14:16;;;;;;;0.50;0.20;;;;;;;18.76;100.00;99750.28;5005824;28;20453;-48
2023/09/12 03:16:43;;;;;;;0.40;0.20;;;;;;;18.77;100.00;99745.75;5008181;28;21424;-48
2023/09/12 03:19:09;;;;;;;0.50;0.30;;;;;;;18.58;100.00;99741.66;5011156;28;20842;-48
2023/09/12 03:21:36;;;;;;;0.40;0.20;;;;;;;18.75;100.00;99739.63;5001326;28;20467;-48
2023/09/12 03:24:03;;;;;;;0.50;0.20;;;;;;;18.68;100.00;99747.28;5005741;28;20477;-48
2023/09/12 03:26:29;;;;;;;0.50;0.20;;;;;;;18.60;100.00;99739.72;5008496;28;20457;-51
2023/09/12 03:28:55;;;;;;;0.47;0.20;;;;;;;18.72;100.00;99740.72;5003878;28;20994;-48
2023/09/12 03:31:22;;;;;;;0.50;0.20;;;;;;;18.97;100.00;99739.81;5008852;28;20485;-48
2023/09/12 03:33:50;;;;;;;0.50;0.20;;;;;;;19.02;100.00;99743.03;5004780;28;20822;-51
2023/09/12 03:36:20;;;;;;;0.40;0.20;;;;;;;19.07;100.00;99735.50;5001536;28;20453;-48
2023/09/12 03:38:46;;;;;;;0.50;0.30;;;;;;;19.05;100.00;99741.94;5004153;28;20524;-51
2023/09/12 03:41:13;;;;;;;0.40;0.20;;;;;;;19.04;100.00;99748.31;5010432;28;20870;-48
2023/09/12 03:43:39;;;;;;;0.50;0.20;;;;;;;19.09;100.00;99746.16;5004156;28;20464;-51
2023/09/12 03:46:06;;;;;;;0.40;0.20;;;;;;;18.99;100.00;99742.41;5008131;28;20827;-51
2023/09/12 03:48:33;;;;;;;0.40;0.20;;;;;;;18.93;100.00;99741.03;5004826;28;20488;-48
2023/09/12 03:51:01;;;;;;;0.40;0.20;;;;;;;18.93;100.00;99747.28;5001471;28;20449;-48
2023/09/12 03:53:27;;;;;;;0.40;0.20;;;;;;;19.19;100.00;99755.31;5003882;28;20452;-50
2023/09/12 03:55:54;;;;;;;0.40;0.20;;;;;;;19.22;100.00;99755.94;5020776;28;20483;-47
2023/09/12 03:58:21;;;;;;;0.50;0.20;;;;;;;19.21;100.00;99751.53;5002145;28;20882;-48
2023/09/12 04:00:48;;;;;;;0.40;0.20;;;;;;;19.14;100.00;99755.63;5007981;28;20457;-48
2023/09/12 04:03:16;;;;;;;0.40;0.20;;;;;;;19.11;100.00;99752.31;5001997;28;20465;-51
2023/09/12 04:05:42;;;;;;;0.40;0.20;;;;;;;19.12;100.00;99754.88;5008099;28;20458;-49
2023/09/12 04:08:09;;;;;;;0.40;0.20;;;;;;;19.10;100.00;99759.53;5006957;28;20514;-48
2023/09/12 04:10:35;;;;;;;0.40;0.20;;;;;;;19.13;100.00;99759.28;5002250;28;20478;-50
2023/09/12 04:13:02;;;;;;;0.40;0.20;;;;;;;19.23;100.00;99760.34;5001650;28;20884;-48
2023/09/12 04:15:28;;;;;;;0.40;0.20;;;;;;;19.13;100.00;99756.59;5009352;28;20462;-48
2023/09/12 04:17:55;;;;;;;0.40;0.27;;;;;;;19.11;100.00;99755.84;5006839;28;20829;-48
2023/09/12 04:20:21;;;;;;;0.40;0.30;;;;;;;19.06;100.00;99755.34;5007427;28;20501;-48
2023/09/12 04:22:48;;;;;;;0.40;0.20;;;;;;;19.12;100.00;99754.88;5002757;28;20539;-51
2023/09/12 04:25:14;;;;;;;0.50;0.20;;;;;;;19.11;100.00;99755.84;5000380;28;20453;-51
2023/09/12 04:27:42;;;;;;;0.40;0.20;;;;;;;18.96;100.00;99753.41;5007837;28;20678;-51
2023/09/12 04:30:08;;;;;;;0.50;0.20;;;;;;;18.91;100.00;99764.50;5000888;28;21013;-48
2023/09/12 04:32:35;;;;;;;0.40;0.20;;;;;;;18.93;100.00;99754.50;5009166;28;20547;-50
2023/09/12 04:35:02;;;;;;;0.50;0.20;;;;;;;19.18;100.00;99749.03;5007308;28;20456;-51
2023/09/12 04:37:29;;;;;;;0.50;0.20;;;;;;;19.24;100.00;99753.13;4995972;28;20438;-51
2023/09/12 04:39:56;;;;;;;0.40;0.20;;;;;;;19.35;100.00;99760.44;5011097;28;20559;-47
2023/09/12 04:42:23;;;;;;;0.40;0.20;;;;;;;19.44;100.00;99762.44;5006509;28;20870;-49
2023/09/12 04:44:49;;;;;;;0.40;0.20;;;;;;;19.40;100.00;99755.56;5011520;28;20453;-48
2023/09/12 04:47:16;;;;;;;0.40;0.20;;;;;;;19.35;100.00;99755.03;5003102;28;20518;-50
2023/09/12 04:49:43;;;;;;;0.50;0.20;;;;;;;19.33;100.00;99757.00;5013276;28;20475;-50
2023/09/12 04:52:10;;;;;;;0.40;0.20;;;;;;;19.37;100.00;99753.97;5009212;28;20455;-48
2023/09/12 04:54:36;;;;;;;0.43;0.20;;;;;;;19.37;100.00;99755.78;5008898;28;20510;-50
2023/09/12 04:57:03;;;;;;;0.43;0.20;;;;;;;19.15;100.00;99756.47;5011888;28;20492;-48
2023/09/12 04:59:29;;;;;;;0.40;0.20;;;;;;;19.04;100.00;99753.69;5001673;28;20476;-48
2023/09/12 05:01:56;;;;;;;0.50;0.40;;;;;;;19.19;100.00;99758.00;5000052;28;20456;-48
2023/09/12 05:04:22;;;;;;;0.40;0.20;;;;;;;19.03;100.00;99751.97;5009694;28;20922;-47
2023/09/12 05:06:49;;;;;;;0.47;0.20;;;;;;;19.02;100.00;99747.56;4999872;28;20454;-52
2023/09/12 05:09:16;;;;;;;0.50;0.20;;;;;;;18.85;100.00;99746.09;5004082;28;20493;-50
2023/09/12 05:11:42;;;;;;;0.40;0.20;;;;;;;19.05;100.00;99739.25;5006606;28;20453;-48
2023/09/12 05:14:09;;;;;;;0.40;0.20;;;;;;;19.02;100.00;99739.47;5001107;28;20981;-48
2023/09/12 05:16:35;;;;;;;0.40;0.20;;;;;;;19.14;100.00;99728.69;4997738;28;20895;-48
2023/09/12 05:19:03;;;;;;;0.43;0.20;;;;;;;19.30;100.00;99724.84;5007420;28;20564;-48
2023/09/12 05:21:30;;;;;;;0.40;0.30;;;;;;;19.37;100.00;99726.13;5009849;28;20514;-48
2023/09/12 05:23:56;;;;;;;0.43;0.20;;;;;;;19.43;100.00;99720.28;5000693;28;20457;-50
2023/09/12 05:26:23;;;;;;;0.50;0.30;;;;;;;19.40;100.00;99728.59;4995831;28;20548;-51
2023/09/12 05:28:49;;;;;;;0.40;0.20;;;;;;;19.46;100.00;99733.53;5004123;28;20576;-50
2023/09/12 05:31:16;;;;;;;0.40;0.23;;;;;;;19.48;100.00;99743.25;5005461;28;20456;-49
2023/09/12 05:33:42;;;;;;;0.40;0.20;;;;;;;19.46;100.00;99745.19;5004125;28;20482;-50
2023/09/12 05:36:09;;;;;;;0.40;0.20;;;;;;;19.48;100.00;99750.47;4999656;28;20453;-51
2023/09/12 05:38:36;;;;;;;0.40;0.20;;;;;;;19.51;100.00;99744.84;5007278;28;20453;-51
2023/09/12 05:41:02;;;;;;;0.53;0.53;;;;;;;19.52;100.00;99741.19;5009450;28;20535;-51
2023/09/12 05:43:28;;;;;;;0.40;0.20;;;;;;;19.53;100.00;99746.44;5010116;28;20532;-49
2023/09/12 05:45:57;;;;;;;0.40;0.20;;;;;;;19.58;100.00;99743.44;5003282;28;20458;-49
2023/09/12 05:48:23;;;;;;;0.63;0.63;;;;;;;19.58;100.00;99751.53;5003608;28;20514;-48
2023/09/12 05:50:50;;;;;;;0.40;0.20;;;;;;;19.49;100.00;99754.88;5008297;28;20431;-51
2023/09/12 05:53:16;;;;;;;0.40;0.20;;;;;;;19.52;100.00;99752.81;5003538;28;20533;-51
2023/09/12 05:55:43;;;;;;;1.43;1.33;;;;;;;19.55;100.00;99762.53;5017153;28;20942;-48
2023/09/12 05:58:09;;;;;;;0.40;0.20;;;;;;;19.39;100.00;99772.72;5008573;28;20455;-49
2023/09/12 06:00:36;;;;;;;0.40;0.20;;;;;;;19.40;100.00;99777.13;5001165;28;20556;-48
2023/09/12 06:03:02;;;;;;;0.40;0.20;;;;;;;19.52;100.00;99776.22;5000496;28;20457;-51
2023/09/12 06:05:29;;;;;;;0.40;0.20;;;;;;;19.63;100.00;99787.13;5005575;28;20524;-48
2023/09/12 06:07:55;;;;;;;0.50;0.30;;;;;;;19.63;100.00;99779.03;5003356;28;20563;-51
2023/09/12 06:10:22;;;;;;;0.40;0.20;;;;;;;19.66;100.00;99786.03;4999236;28;20483;-48
2023/09/12 06:12:49;;;;;;;0.47;0.20;;;;;;;19.88;100.00;99798.78;5001932;28;20449;-48
2023/09/12 06:15:16;;;;;;;0.40;0.20;;;;;;;20.05;100.00;99792.97;5010079;28;20531;-48
2023/09/12 06:17:42;;;;;;;0.40;0.20;;;;;;;20.36;99.05;99797.75;5006040;28;20506;-52
2023/09/12 06:20:10;;;;;;;0.40;0.20;;;;;;;20.22;98.26;99794.38;4998844;28;20552;-51
2023/09/12 06:22:37;;;;;;;0.40;0.20;;;;;;;20.30;97.83;99800.91;5001581;28;20452;-49
2023/09/12 06:25:04;;;;;;;0.40;0.20;;;;;;;20.29;98.43;99798.34;4997248;28;20463;-52
2023/09/12 06:27:31;;;;;;;0.40;0.30;;;;;;;20.22;98.48;99797.94;5011386;28;20491;-53
2023/09/12 06:29:58;;;;;;;0.40;0.20;;;;;;;20.37;98.28;99791.34;5006343;28;20477;-51
2023/09/12 06:32:24;;;;;;;0.40;0.20;;;;;;;20.47;97.66;99788.84;5003476;28;20463;-48
2023/09/12 06:34:51;;;;;;;0.40;0.20;;;;;;;20.32;98.25;99784.59;4998615;28;21337;-49
2023/09/12 06:37:18;;;;;;;0.47;0.23;;;;;;;20.33;98.25;99783.63;5001073;28;20515;-51
2023/09/12 06:39:44;;;;;;;0.40;0.20;;;;;;;20.38;98.55;99782.28;5005688;28;20473;-52
2023/09/12 06:42:11;;;;;;;0.40;0.20;;;;;;;20.64;97.64;99787.53;5004492;28;20427;-51
2023/09/12 06:44:37;;;;;;;0.50;0.30;;;;;;;20.60;97.49;99794.16;5004094;28;20489;-52
2023/09/12 06:47:05;;;;;;;0.40;0.20;;;;;;;20.70;96.58;99789.75;5000412;28;20548;-49
2023/09/12 06:49:32;;;;;;;0.40;0.20;;;;;;;21.05;95.73;99788.78;5011739;28;20551;-52
2023/09/12 06:52:01;;;;;;;0.40;0.20;;;;;;;21.12;95.34;99795.44;5001969;28;20449;-53
2023/09/12 06:54:27;;;;;;;0.47;0.20;;;;;;;21.08;95.37;99797.50;5021815;28;20452;-51
2023/09/12 06:56:54;;;;;;;0.47;0.20;;;;;;;21.03;95.44;99801.56;5015627;28;20460;-49
2023/09/12 06:59:20;;;;;;;0.40;0.20;;;;;;;21.22;95.33;99785.59;5002607;28;20476;-49
2023/09/12 07:01:46;;;;;;;0.50;0.20;;;;;;;21.27;95.04;99789.69;5009725;28;20467;-52
2023/09/12 07:04:13;;;;;;;2.23;2.10;;;;;;;21.32;94.80;99793.84;5008481;28;20954;-49
2023/09/12 07:06:39;;;;;;;0.40;0.20;;;;;;;21.54;94.25;99801.94;5008969;28;20458;-51
2023/09/12 07:09:08;;;;;;;0.50;0.20;;;;;;;21.61;93.38;99803.16;5003159;28;20496;-52
2023/09/12 07:11:35;;;;;;;0.47;0.20;;;;;;;21.54;94.29;99801.94;5006184;28;20463;-49
2023/09/12 07:14:03;;;;;;;0.50;0.20;;;;;;;21.50;94.30;99789.66;5002938;28;20544;-53
2023/09/12 07:16:31;;;;;;;0.50;0.23;;;;;;;21.69;93.82;99795.28;5002111;28;20523;-51
2023/09/12 07:18:58;;;;;;;0.50;0.30;;;;;;;21.84;93.69;99787.72;5012360;28;20477;-50
2023/09/12 07:21:24;;;;;;;0.50;0.20;;;;;;;21.82;92.29;99784.31;5010301;28;20533;-49
2023/09/12 07:23:51;;;;;;;0.43;0.20;;;;;;;21.93;92.29;99788.78;5006453;28;20460;-49
2023/09/12 07:26:18;;;;;;;0.50;0.20;;;;;;;22.37;91.19;99777.81;5008376;28;20434;-52
2023/09/12 07:28:45;;;;;;;0.50;0.30;;;;;;;22.38;91.09;99782.25;5003414;28;20583;-51
2023/09/12 07:31:12;;;;;;;0.50;0.20;;;;;;;22.66;90.13;99780.72;5001659;28;20432;-51
2023/09/12 07:33:38;;;;;;;0.50;0.20;;;;;;;22.34;90.96;99788.03;5005968;28;20457;-52
2023/09/12 07:36:05;;;;;;;0.50;0.20;;;;;;;22.21;91.52;99793.66;5008277;28;20427;-52
2023/09/12 07:38:32;;;;;;;0.50;0.20;;;;;;;22.67;90.49;99798.69;5004175;28;20514;-49
2023/09/12 07:41:00;;;;;;;0.50;0.20;;;;;;;22.76;89.69;99797.91;5001734;28;20442;-48
2023/09/12 07:43:26;;;;;;;0.50;0.20;;;;;;;22.92;90.17;99796.59;5011138;28;20543;-49
2023/09/12 07:45:57;;;;;;;0.50;0.20;;;;;;;22.81;89.26;99802.06;5011356;28;20535;-49
2023/09/12 07:48:24;;;;;;;0.50;0.20;;;;;;;22.56;90.28;99800.59;5005143;28;21046;-52
2023/09/12 07:50:51;;;;;;;0.50;0.20;;;;;;;22.91;89.79;99805.72;5010621;28;20431;-49
2023/09/12 07:53:18;;;;;;;0.50;0.20;;;;;;;23.10;88.54;99799.53;5005792;28;20878;-52
2023/09/12 07:55:47;;;;;;;0.50;0.20;;;;;;;23.34;87.49;99800.06;5021565;28;20424;-53
2023/09/12 07:58:18;;;;;;;0.50;0.20;;;;;;;23.38;87.51;99806.06;5003525;28;20515;-53
2023/09/12 08:00:46;;;;;;;0.50;0.20;;;;;;;23.70;86.34;99798.59;5007358;28;20872;-49
2023/09/12 08:03:12;;;;;;;0.57;0.47;;;;;;;23.46;87.32;99803.53;5013971;28;20445;-52
2023/09/12 08:05:39;;;;;;;0.50;0.20;;;;;;;23.81;86.60;99809.34;5001031;28;20972;-52
2023/09/12 08:08:06;;;;;;;0.50;0.20;;;;;;;24.13;85.69;99802.84;5009948;28;20522;-52
2023/09/12 08:10:32;;;;;;;0.50;0.20;;;;;;;24.31;84.77;99801.13;5000890;28;20479;-49
2023/09/12 08:12:59;;;;;;;0.50;0.20;;;;;;;24.14;85.74;99797.25;5001454;28;20453;-53
2023/09/12 08:15:26;;;;;;;0.50;0.20;;;;;;;24.00;85.82;99799.53;5007686;28;20428;-52
2023/09/12 08:17:54;;;;;;;0.50;0.20;;;;;;;23.80;86.48;99796.78;5006933;28;20423;-51
2023/09/12 08:20:21;;;;;;;0.50;0.20;;;;;;;23.93;86.27;99789.22;5007643;28;20527;-52
2023/09/12 08:22:48;;;;;;;8.83;5.93;;;;;;;23.89;86.45;99785.09;5007298;28;20512;-52
2023/09/12 08:25:15;;;;;;;0.50;0.20;;;;;;;23.98;86.61;99785.22;5000626;28;20485;-52
2023/09/12 08:27:43;;;;;;;0.50;0.20;;;;;;;24.41;85.19;99785.69;5000661;28;20502;-50
2023/09/12 08:30:12;;;;;;;0.50;0.30;;;;;;;24.74;84.49;99791.63;5006741;28;20493;-52
2023/09/12 08:32:43;;;;;;;0.50;0.20;;;;;;;24.73;84.59;99792.66;5007071;28;20463;-53
2023/09/12 08:35:12;;;;;;;0.50;0.20;;;;;;;25.03;83.50;99802.47;4994645;28;20460;-53
2023/09/12 08:37:40;;;;;;;0.60;0.60;;;;;;;24.84;84.76;99806.06;5007011;28;20453;-53
2023/09/12 08:40:10;;;;;;;4.10;1.10;;;;;;;25.05;84.17;99808.63;5003363;28;20452;-52
2023/09/12 08:42:43;;;;;;;0.50;0.20;;;;;;;25.06;82.37;99815.75;5007091;28;20978;-50
2023/09/12 08:45:14;;;;;;;0.50;0.20;;;;;;;24.77;82.74;99804.94;5004391;28;20519;-49
2023/09/12 08:47:43;;;;;;;0.50;0.30;;;;;;;24.92;81.33;99813.47;5000144;28;20863;-49
2023/09/12 08:50:14;;;;;;;0.50;0.20;;;;;;;24.87;81.54;99815.78;5001989;28;20474;-48
2023/09/12 08:52:42;;;;;;;0.50;0.20;;;;;;;24.72;81.23;99823.56;4999472;28;20434;-52
2023/09/12 08:55:25;;;;;;;0.50;0.20;;;;;;;25.20;80.75;99826.16;5013304;28;20448;-52
2023/09/12 08:57:55;;;;;;;0.50;0.20;;;;;;;25.55;79.31;99816.44;5005166;28;20458;-52
2023/09/12 09:00:22;;;;;;;0.50;0.47;;;;;;;25.67;78.26;99816.06;5006545;28;20471;-51
2023/09/12 09:02:50;;;;;;;0.60;0.30;;;;;;;25.38;78.73;99815.38;5000631;28;20466;-49
2023/09/12 09:05:20;;;;;;;0.50;0.30;;;;;;;25.94;76.64;99817.09;5006632;28;20503;-52
2023/09/12 09:07:48;;;;;;;0.50;0.30;;;;;;;25.82;74.69;99819.16;5002808;28;20459;-49
2023/09/12 09:10:17;;;;;;;0.50;0.30;;;;;;;26.03;74.59;99813.41;4996872;28;20475;-48
2023/09/12 09:12:50;;;;;;;0.50;0.30;;;;;;;26.09;75.46;99812.81;5004224;28;20444;-53
2023/09/12 09:15:27;;;;;;;0.50;0.20;;;;;;;26.24;74.79;99814.00;4998780;28;20905;-49
2023/09/12 09:17:57;;;;;;;1.90;1.80;;;;;;;26.31;73.64;99807.91;5005283;28;20427;-49
2023/09/12 09:20:27;;;;;;;0.50;0.27;;;;;;;26.34;73.95;99804.88;5006867;28;20469;-49
2023/09/12 09:22:57;;;;;;;0.70;0.67;;;;;;;26.29;73.81;99806.19;5006335;28;20457;-51
2023/09/12 09:25:24;;;;;;;0.50;0.30;;;;;;;26.57;72.13;99800.66;5000340;28;20449;-53
2023/09/12 09:27:50;;;;;;;0.50;0.30;;;;;;;26.16;72.27;99796.69;5001854;28;20513;-50
2023/09/12 09:30:18;;;;;;;0.50;0.30;;;;;;;26.31;71.30;99802.44;5000203;28;21006;-52
2023/09/12 09:32:45;;;;;;;0.50;0.23;;;;;;;26.46;70.86;99796.34;4999606;28;20453;-49
2023/09/12 09:35:12;;;;;;;2.27;2.10;;;;;;;26.74;70.73;99791.63;5005050;28;20874;-49
2023/09/12 09:37:39;;;;;;;0.50;0.30;;;;;;;26.86;71.44;99803.09;5006110;28;20518;-49
2023/09/12 09:40:09;;;;;;;0.50;0.30;;;;;;;26.98;69.96;99796.34;5000810;28;20548;-52
2023/09/12 09:42:37;;;;;;;0.60;0.50;;;;;;;27.31;69.27;99794.72;4999238;28;20924;-50
2023/09/12 09:45:04;;;;;;;0.50;0.30;;;;;;;26.70;71.61;99800.25;5001828;28;20460;-53
2023/09/12 09:47:32;;;;;;;0.50;0.30;;;;;;;27.06;70.30;99796.44;4999798;28;20459;-53
2023/09/12 09:49:59;;;;;;;0.50;0.20;;;;;;;27.37;69.39;99796.78;5012448;28;20583;-51
2023/09/12 09:52:29;;;;;;;0.50;0.30;;;;;;;26.82;70.48;99788.91;4999288;28;20828;-49
2023/09/12 09:54:55;;;;;;;0.50;0.30;;;;;;;26.75;70.43;99785.13;5019886;28;20451;-52
2023/09/12 09:57:25;;;;;;;0.50;0.30;;;;;;;26.85;71.22;99785.88;5008593;28;20453;-52
2023/09/12 09:59:52;;;;;;;0.50;0.30;;;;;;;27.35;68.65;99787.03;5004227;28;20484;-53
2023/09/12 10:02:24;;;;;;;0.50;0.20;;;;;;;27.71;69.30;99787.72;5005952;28;20467;-53
2023/09/12 10:04:53;;;;;;;0.60;0.50;;;;;;;27.62;68.04;99786.81;5000116;28;20480;-50
2023/09/12 10:07:23;;;;;;;0.50;0.30;;;;;;;27.48;69.28;99779.25;5005790;28;20945;-52
2023/09/12 10:09:50;;;;;;;0.50;0.20;;;;;;;27.73;68.74;99772.88;5005344;28;20933;-53
2023/09/12 10:12:17;;;;;;;0.50;0.30;;;;;;;27.69;67.55;99765.19;4999766;28;20939;-49
2023/09/12 10:14:44;;;;;;;0.50;0.23;;;;;;;27.84;67.59;99765.41;4998713;28;20458;-49
2023/09/12 10:17:13;;;;;;;0.50;0.20;;;;;;;27.63;67.00;99763.94;5005608;28;20483;-53
2023/09/12 10:19:54;;;;;;;0.50;0.27;;;;;;;27.33;67.96;99762.63;5005260;28;20477;-50
2023/09/12 10:22:25;;;;;;;0.50;0.30;;;;;;;27.35;67.49;99776.13;5001966;28;20543;-50
2023/09/12 10:24:53;;;;;;;0.50;0.30;;;;;;;27.46;68.00;99781.28;4999284;28;20527;-52
2023/09/12 10:27:22;;;;;;;0.67;0.60;;;;;;;27.45;67.37;99777.72;5005103;28;20453;-50
2023/09/12 10:29:52;;;;;;;0.50;0.20;;;;;;;27.67;67.52;99779.00;5009333;28;20493;-53
2023/09/12 10:32:20;;;;;;;0.50;0.30;;;;;;;27.87;66.64;99776.84;5007708;28;20521;-50
2023/09/12 10:34:48;;;;;;;0.60;0.60;;;;;;;27.83;66.26;99782.81;5002961;28;20462;-49
2023/09/12 10:37:16;;;;;;;0.50;0.20;;;;;;;27.88;66.44;99792.22;5004255;28;20445;-52
2023/09/12 10:39:43;;;;;;;0.50;0.30;;;;;;;27.99;68.31;99789.16;5009294;28;20557;-49
2023/09/12 10:42:12;;;;;;;0.50;0.20;;;;;;;27.60;66.41;99769.72;5008316;28;20470;-49
2023/09/12 10:44:39;;;;;;;0.50;0.30;;;;;;;27.77;67.22;99769.81;5002572;28;20460;-52
2023/09/12 10:47:06;;;;;;;0.90;0.80;;;;;;;27.79;66.04;99763.16;5002872;28;20477;-53
2023/09/12 10:49:33;;;;;;;0.50;0.30;;;;;;;28.08;64.83;99757.22;5015732;28;20583;-49
2023/09/12 10:51:59;;;;;;;0.50;0.20;;;;;;;28.17;64.70;99755.34;5002720;28;20449;-50
2023/09/12 10:54:37;;;;;;;0.50;0.33;;;;;;;28.02;65.15;99752.44;5022035;28;20440;-49
2023/09/12 10:57:11;;;;;;;0.50;0.27;;;;;;;28.15;64.37;99758.25;5013461;28;20437;-52
2023/09/12 11:00:10;;;;;;;0.50;0.30;;;;;;;28.30;64.04;99758.47;5004451;28;20489;-49
2023/09/12 11:02:39;;;;;;;0.50;0.30;;;;;;;28.55;62.86;99757.44;5001730;28;20472;-53
2023/09/12 11:05:28;;;;;;;1.50;1.50;;;;;;;28.81;62.96;99759.13;5008716;28;20540;-49
2023/09/12 11:07:59;;;;;;;0.50;0.20;;;;;;;28.83;62.46;99766.13;5006824;28;20488;-52
2023/09/12 11:10:27;;;;;;;0.50;0.40;;;;;;;29.09;62.45;99756.84;5008408;28;20907;-49
2023/09/12 11:12:56;;;;;;;0.50;0.30;;;;;;;29.08;62.61;99760.63;5004454;28;20533;-49
2023/09/12 11:15:25;;;;;;;0.50;0.30;;;;;;;29.55;61.24;99759.75;5008753;28;20532;-49
2023/09/12 11:18:05;;;;;;;0.50;0.30;;;;;;;29.74;60.29;99754.72;5008490;28;20931;-49
2023/09/12 11:20:53;;;;;;;0.50;0.30;;;;;;;29.24;60.73;99755.09;4995577;28;20497;-51
2023/09/12 11:23:19;;;;;;;0.50;0.30;;;;;;;29.22;61.86;99756.28;5008980;28;20450;-50
2023/09/12 11:25:46;;;;;;;0.50;0.27;;;;;;;29.25;62.21;99761.41;5006068;28;20452;-53
2023/09/12 11:28:13;;;;;;;0.57;0.30;;;;;;;29.38;62.34;99757.06;5002086;28;20448;-54
2023/09/12 11:30:56;;;;;;;1.60;1.50;;;;;;;29.58;61.88;99757.50;5004664;28;20580;-54
2023/09/12 11:33:26;;;;;;;1.13;1.13;;;;;;;29.38;60.73;99751.59;5008995;28;20446;-53